Time;durP1;ratioP1;P1;durP2;ratioP2;P2;SDS_P1;SDS_P2;PMS_P1;PMS_P2;Temp;Humidity;BMP_temperature;BMP_pressure;BME280_temperature;BME280_humidity;BME280_pressure;Samples;Min_cycle;Max_cycle;Signal;HPM_P1;HPM_P2
2023/07/17 00:01:54;;;;;;;11.07;2.37;;;16.80;75.00;;;;;;5086311;28;20361;-68
2023/07/17 00:04:20;;;;;;;12.47;2.37;;;16.80;74.80;;;;;;5089617;28;20093;-68
2023/07/17 00:06:45;;;;;;;8.23;2.37;;;16.80;74.80;;;;;;5087901;28;20162;-68
2023/07/17 00:09:11;;;;;;;12.23;1.87;;;16.80;74.70;;;;;;5085415;28;20043;-68
2023/07/17 00:11:37;;;;;;;13.73;2.67;;;16.80;74.70;;;;;;5083927;28;20082;-68
2023/07/17 00:14:02;;;;;;;8.63;1.90;;;16.80;74.50;;;;;;5071999;28;20492;-68
2023/07/17 00:16:28;;;;;;;7.20;1.60;;;16.80;74.20;;;;;;5082145;28;20048;-68
2023/07/17 00:18:54;;;;;;;12.50;2.50;;;16.80;74.30;;;;;;5070419;28;20044;-68
2023/07/17 00:21:20;;;;;;;11.13;2.40;;;16.80;74.10;;;;;;5077437;28;20297;-68
2023/07/17 00:23:47;;;;;;;16.77;2.43;;;16.80;74.20;;;;;;5087483;28;20040;-68
2023/07/17 00:26:13;;;;;;;9.57;2.20;;;16.70;74.20;;;;;;5089329;28;20332;-68
2023/07/17 00:28:38;;;;;;;8.47;2.00;;;16.70;74.20;;;;;;5066662;28;20829;-68
2023/07/17 00:31:04;;;;;;;10.77;2.20;;;16.70;74.80;;;;;;5078966;28;20040;-68
2023/07/17 00:33:30;;;;;;;11.83;2.23;;;16.70;74.70;;;;;;5088469;28;20043;-68
2023/07/17 00:35:55;;;;;;;12.50;2.60;;;16.60;74.90;;;;;;5078473;28;20404;-68
2023/07/17 00:38:21;;;;;;;7.67;1.97;;;16.70;75.10;;;;;;5060428;28;20035;-68
2023/07/17 00:40:47;;;;;;;8.77;2.30;;;16.60;75.30;;;;;;5088511;28;20028;-68
2023/07/17 00:43:13;;;;;;;9.40;2.60;;;16.60;75.90;;;;;;5092346;28;20083;-68
2023/07/17 00:45:41;;;;;;;7.70;2.47;;;16.60;75.50;;;;;;5089844;28;20542;-68
2023/07/17 00:48:07;;;;;;;9.57;2.27;;;16.60;75.90;;;;;;5092474;28;20353;-68
2023/07/17 00:50:34;;;;;;;10.33;2.40;;;16.50;76.00;;;;;;5088589;28;20296;-68
2023/07/17 00:53:01;;;;;;;10.53;2.43;;;16.50;75.80;;;;;;5087142;28;20278;-68
2023/07/17 00:55:26;;;;;;;10.67;2.17;;;16.50;76.10;;;;;;5090574;28;20376;-68
2023/07/17 00:57:52;;;;;;;11.07;2.90;;;16.50;76.30;;;;;;5092263;28;20277;-68
2023/07/17 01:00:23;;;;;;;10.50;2.37;;;16.40;76.30;;;;;;5091858;28;20040;-68
2023/07/17 01:02:51;;;;;;;11.50;2.70;;;16.40;76.60;;;;;;5075380;28;20285;-68
2023/07/17 01:05:17;;;;;;;10.60;2.50;;;16.30;76.60;;;;;;5074892;28;20281;-68
2023/07/17 01:07:42;;;;;;;9.30;2.50;;;16.30;76.90;;;;;;5079110;28;20351;-68
2023/07/17 01:10:09;;;;;;;13.07;2.57;;;16.30;77.00;;;;;;5091519;28;20035;-68
2023/07/17 01:12:35;;;;;;;7.47;2.43;;;16.20;77.10;;;;;;5092744;28;20043;-68
2023/07/17 01:15:02;;;;;;;11.33;2.67;;;16.10;77.60;;;;;;5094251;28;20645;-68
2023/07/17 01:17:28;;;;;;;9.57;2.40;;;16.10;77.80;;;;;;5094965;28;20281;-68
2023/07/17 01:19:54;;;;;;;8.93;3.00;;;16.00;77.90;;;;;;5093868;28;20281;-68
2023/07/17 01:22:52;;;;;;;11.93;2.80;;;15.90;78.40;;;;;;5091805;28;20047;-68
2023/07/17 01:25:18;;;;;;;11.00;2.73;;;15.90;79.00;;;;;;5087554;28;20062;-68
2023/07/17 01:27:43;;;;;;;12.60;2.50;;;15.80;79.10;;;;;;5085791;28;20289;-68
2023/07/17 01:30:09;;;;;;;11.20;2.70;;;15.80;78.90;;;;;;5086693;28;20432;-68
2023/07/17 01:32:35;;;;;;;14.93;2.77;;;15.70;79.30;;;;;;5072214;28;20093;-68
2023/07/17 01:35:01;;;;;;;8.97;2.97;;;15.70;79.90;;;;;;5091824;28;20445;-68
2023/07/17 01:37:26;;;;;;;10.80;3.17;;;15.70;80.30;;;;;;5090952;28;20406;-68
2023/07/17 01:39:52;;;;;;;13.13;2.43;;;15.70;80.50;;;;;;5091295;28;20518;-68
2023/07/17 01:42:18;;;;;;;11.80;3.27;;;15.70;80.40;;;;;;5073650;28;20355;-68
2023/07/17 01:44:43;;;;;;;7.73;2.50;;;15.70;80.60;;;;;;5091254;28;20051;-68
2023/07/17 01:47:09;;;;;;;10.00;2.60;;;15.60;80.60;;;;;;5075247;28;20044;-68
2023/07/17 01:49:35;;;;;;;15.00;3.10;;;15.60;80.90;;;;;;5091198;28;20690;-68
2023/07/17 01:52:00;;;;;;;9.53;2.77;;;15.60;80.40;;;;;;5094595;28;20089;-68
2023/07/17 01:54:26;;;;;;;14.27;2.30;;;15.60;81.40;;;;;;5091133;28;20065;-68
2023/07/17 01:56:52;;;;;;;9.63;2.57;;;15.60;80.80;;;;;;5090235;28;20519;-68
2023/07/17 01:59:17;;;;;;;14.70;3.20;;;15.60;81.40;;;;;;5081965;28;20047;-68
2023/07/17 02:01:43;;;;;;;10.43;2.80;;;15.60;81.10;;;;;;5067885;28;20062;-68
2023/07/17 02:04:09;;;;;;;12.23;3.00;;;15.60;80.80;;;;;;5074680;28;20040;-68
2023/07/17 02:06:35;;;;;;;12.40;2.77;;;15.60;81.20;;;;;;5066024;28;20479;-68
2023/07/17 02:09:00;;;;;;;11.03;3.10;;;15.60;81.20;;;;;;5078209;28;20683;-68
2023/07/17 02:11:29;;;;;;;12.40;2.97;;;15.60;81.30;;;;;;5080363;28;20075;-68
2023/07/17 02:13:54;;;;;;;11.10;2.60;;;15.60;81.40;;;;;;5079931;28;20504;-68
2023/07/17 02:16:20;;;;;;;14.57;3.30;;;15.70;81.70;;;;;;5065489;28;20338;-68
2023/07/17 02:18:46;;;;;;;12.13;3.10;;;15.70;82.30;;;;;;5090347;28;20147;-68
2023/07/17 02:21:12;;;;;;;8.77;2.73;;;15.70;82.10;;;;;;5073290;28;20126;-68
2023/07/17 02:23:37;;;;;;;15.47;3.50;;;15.70;82.20;;;;;;5080779;28;20042;-68
2023/07/17 02:26:03;;;;;;;16.07;2.97;;;15.70;82.50;;;;;;5079948;28;20055;-68
2023/07/17 02:28:29;;;;;;;12.10;3.20;;;15.70;82.20;;;;;;5073098;28;20043;-68
2023/07/17 02:30:55;;;;;;;10.50;3.10;;;15.70;82.20;;;;;;5090271;28;20035;-68
2023/07/17 02:33:20;;;;;;;11.70;3.20;;;15.60;82.60;;;;;;5073320;28;20042;-68
2023/07/17 02:35:46;;;;;;;13.17;2.90;;;15.70;82.10;;;;;;5091229;28;20134;-68
2023/07/17 02:38:12;;;;;;;15.10;3.50;;;15.70;82.40;;;;;;5087880;28;20042;-68
2023/07/17 02:40:37;;;;;;;14.33;2.93;;;15.70;82.80;;;;;;5101298;28;20035;-68
2023/07/17 02:43:05;;;;;;;15.07;3.43;;;15.70;83.00;;;;;;5105330;28;20043;-68
2023/07/17 02:45:31;;;;;;;13.10;3.47;;;15.70;83.30;;;;;;5090195;28;20047;-68
2023/07/17 02:47:56;;;;;;;16.37;3.97;;;15.60;83.00;;;;;;5090632;28;20285;-68
2023/07/17 02:50:22;;;;;;;15.23;3.20;;;15.60;83.00;;;;;;5087578;28;20171;-68
2023/07/17 02:52:48;;;;;;;16.43;3.77;;;15.50;83.30;;;;;;5090828;28;20089;-68
2023/07/17 02:55:13;;;;;;;14.83;3.03;;;15.50;83.50;;;;;;5089872;28;20111;-68
2023/07/17 02:57:39;;;;;;;15.50;3.67;;;15.40;83.50;;;;;;5082842;28;20058;-68
2023/07/17 03:00:12;;;;;;;17.83;3.87;;;15.40;84.30;;;;;;5097391;28;20074;-68
2023/07/17 03:02:39;;;;;;;15.87;4.43;;;15.30;84.10;;;;;;5092085;28;20289;-68
2023/07/17 03:05:08;;;;;;;14.93;3.77;;;15.30;84.20;;;;;;5093888;28;20971;-68
2023/07/17 03:07:35;;;;;;;15.13;3.53;;;15.20;84.20;;;;;;5090165;28;20286;-68
2023/07/17 03:10:02;;;;;;;20.33;4.17;;;15.20;84.80;;;;;;5096317;28;21524;-68
2023/07/17 03:12:27;;;;;;;14.57;3.87;;;15.20;85.30;;;;;;5083122;28;20284;-68
2023/07/17 03:14:53;;;;;;;17.13;3.73;;;15.10;85.40;;;;;;5093840;28;20281;-68
2023/07/17 03:17:19;;;;;;;14.00;4.53;;;15.10;85.60;;;;;;5094536;28;20134;-68
2023/07/17 03:19:44;;;;;;;19.50;3.70;;;15.10;85.80;;;;;;5093965;28;20039;-68
2023/07/17 03:22:10;;;;;;;16.90;4.20;;;15.10;86.00;;;;;;5094285;28;20459;-68
2023/07/17 03:24:36;;;;;;;15.07;3.90;;;15.00;86.10;;;;;;5076706;28;20028;-68
2023/07/17 03:27:03;;;;;;;20.00;3.83;;;15.10;86.10;;;;;;5093877;28;20127;-68
2023/07/17 03:29:29;;;;;;;18.30;4.17;;;15.10;86.20;;;;;;5093481;28;20118;-68
2023/07/17 03:31:54;;;;;;;18.77;4.60;;;15.10;86.20;;;;;;5106074;28;20706;-68
2023/07/17 03:34:20;;;;;;;16.97;4.37;;;15.10;86.50;;;;;;5092751;28;20384;-68
2023/07/17 03:36:46;;;;;;;18.50;3.40;;;15.10;87.00;;;;;;5098853;28;20035;-68
2023/07/17 03:39:11;;;;;;;13.70;3.97;;;15.10;86.60;;;;;;5078562;28;20035;-68
2023/07/17 03:41:37;;;;;;;18.47;4.23;;;15.10;87.00;;;;;;5100991;28;20664;-68
2023/07/17 03:44:05;;;;;;;14.47;4.10;;;15.10;86.90;;;;;;5092392;28;20698;-68
2023/07/17 03:46:31;;;;;;;14.17;4.30;;;15.20;87.40;;;;;;5082971;28;20048;-68
2023/07/17 03:48:57;;;;;;;19.43;4.10;;;15.20;86.90;;;;;;5094210;28;20288;-68
2023/07/17 03:51:23;;;;;;;21.73;4.53;;;15.20;86.90;;;;;;5090319;28;20035;-68
2023/07/17 03:53:50;;;;;;;20.83;4.53;;;15.20;87.40;;;;;;5091906;28;20119;-68
2023/07/17 03:56:16;;;;;;;18.70;3.97;;;15.20;87.80;;;;;;5092932;28;20050;-68
2023/07/17 03:58:41;;;;;;;18.83;4.17;;;15.20;87.50;;;;;;5094557;28;20797;-68
2023/07/17 04:01:07;;;;;;;17.57;4.57;;;15.20;88.60;;;;;;5093408;28;20035;-68
2023/07/17 04:03:33;;;;;;;18.10;4.10;;;15.20;88.00;;;;;;5093116;28;20039;-68
2023/07/17 04:05:59;;;;;;;18.90;4.40;;;15.20;87.70;;;;;;5076144;28;20067;-68
2023/07/17 04:08:24;;;;;;;18.30;4.10;;;15.20;87.80;;;;;;5092813;28;20035;-68
2023/07/17 04:10:50;;;;;;;15.67;4.20;;;15.20;87.40;;;;;;5075808;28;20044;-68
2023/07/17 04:13:16;;;;;;;18.33;4.03;;;15.20;87.70;;;;;;5091341;28;20043;-68
2023/07/17 04:15:41;;;;;;;16.30;4.53;;;15.20;87.30;;;;;;5084661;28;20679;-68
2023/07/17 04:18:07;;;;;;;18.17;4.47;;;15.30;88.00;;;;;;5092995;28;20477;-68
2023/07/17 04:20:36;;;;;;;20.20;5.03;;;15.30;87.30;;;;;;5092923;28;20035;-68
2023/07/17 04:23:01;;;;;;;18.20;4.30;;;15.40;87.40;;;;;;5078490;28;20081;-68
2023/07/17 04:25:27;;;;;;;15.30;4.17;;;15.40;87.50;;;;;;5088817;28;20796;-68
2023/07/17 04:27:53;;;;;;;16.20;4.87;;;15.50;87.50;;;;;;5088734;28;20663;-68
2023/07/17 04:30:18;;;;;;;19.23;4.27;;;15.50;87.20;;;;;;5072835;28;20107;-68
2023/07/17 04:32:44;;;;;;;16.50;4.07;;;15.50;87.10;;;;;;5074874;28;20097;-68
2023/07/17 04:35:10;;;;;;;20.77;4.83;;;15.60;86.90;;;;;;5075636;28;20570;-68
2023/07/17 04:37:35;;;;;;;20.73;5.13;;;15.60;87.10;;;;;;5092102;28;20043;-68
2023/07/17 04:40:01;;;;;;;20.07;4.60;;;15.70;87.10;;;;;;5093852;28;20070;-68
2023/07/17 04:42:28;;;;;;;16.20;4.80;;;15.70;86.90;;;;;;5083619;28;20044;-68
2023/07/17 04:44:53;;;;;;;21.40;5.57;;;15.80;87.00;;;;;;5068238;28;20044;-68
2023/07/17 04:47:19;;;;;;;19.83;4.73;;;15.90;87.00;;;;;;5053962;28;20278;-68
2023/07/17 04:49:45;;;;;;;15.90;4.33;;;16.10;87.10;;;;;;5078105;28;20029;-68
2023/07/17 04:52:10;;;;;;;17.27;4.80;;;16.50;85.70;;;;;;5065946;28;20110;-68
2023/07/17 04:54:36;;;;;;;20.37;5.20;;;16.70;85.10;;;;;;5065895;28;20036;-68
2023/07/17 04:57:03;;;;;;;21.20;4.83;;;17.00;84.20;;;;;;5079462;28;20071;-68
2023/07/17 04:59:29;;;;;;;15.67;4.80;;;17.10;83.60;;;;;;5068759;28;20036;-68
2023/07/17 05:01:54;;;;;;;14.43;4.03;;;17.10;83.00;;;;;;5080424;28;20343;-69
2023/07/17 05:04:20;;;;;;;20.53;4.93;;;17.00;82.50;;;;;;5074227;28;20033;-68
2023/07/17 05:06:46;;;;;;;15.10;4.53;;;17.00;82.80;;;;;;5080562;28;20043;-68
2023/07/17 05:09:12;;;;;;;16.93;4.43;;;16.90;83.10;;;;;;5080233;28;20047;-68
2023/07/17 05:11:39;;;;;;;17.20;4.83;;;17.00;83.90;;;;;;5082988;28;20541;-68
2023/07/17 05:14:04;;;;;;;16.80;4.60;;;17.40;83.80;;;;;;5084746;28;20638;-68
2023/07/17 05:16:30;;;;;;;13.90;5.07;;;17.90;82.00;;;;;;5080269;28;20336;-68
2023/07/17 05:18:56;;;;;;;24.53;6.03;;;18.10;80.60;;;;;;5078705;28;20498;-68
2023/07/17 05:21:21;;;;;;;17.10;4.93;;;18.00;80.10;;;;;;5069409;28;20036;-68
2023/07/17 05:23:47;;;;;;;17.03;5.50;;;17.80;80.80;;;;;;5085903;28;20040;-68
2023/07/17 05:26:13;;;;;;;17.87;5.30;;;17.60;81.70;;;;;;5070039;28;20481;-68
2023/07/17 05:28:40;;;;;;;16.43;4.50;;;17.30;82.80;;;;;;5077698;28;20845;-68
2023/07/17 05:31:06;;;;;;;13.90;5.83;;;17.10;83.30;;;;;;5081551;28;20048;-68
2023/07/17 05:33:31;;;;;;;18.93;5.87;;;16.80;84.30;;;;;;5085144;28;20656;-68
2023/07/17 05:35:57;;;;;;;17.43;5.23;;;16.60;84.30;;;;;;5074597;28;20036;-68
2023/07/17 05:38:23;;;;;;;21.43;6.30;;;16.60;85.20;;;;;;5077476;28;20450;-68
2023/07/17 05:40:56;;;;;;;19.10;5.97;;;16.60;86.10;;;;;;5081852;28;20095;-68
2023/07/17 05:43:22;;;;;;;15.47;5.53;;;16.80;86.10;;;;;;5055431;28;20413;-68
2023/07/17 05:45:48;;;;;;;19.73;5.60;;;17.00;85.50;;;;;;5073986;28;20293;-68
2023/07/17 05:48:13;;;;;;;18.10;5.33;;;17.10;84.70;;;;;;5048337;28;20067;-68
2023/07/17 05:50:39;;;;;;;17.43;6.07;;;17.30;84.70;;;;;;5056758;28;20170;-68
2023/07/17 05:53:05;;;;;;;15.73;5.40;;;17.80;82.90;;;;;;5064146;28;20036;-68
2023/07/17 05:55:30;;;;;;;17.80;5.37;;;18.10;80.60;;;;;;5055301;28;20119;-68
2023/07/17 05:57:56;;;;;;;13.07;5.83;;;18.10;79.80;;;;;;5035756;28;20051;-68
2023/07/17 06:00:22;;;;;;;14.87;4.97;;;17.90;79.20;;;;;;5045957;28;20563;-68
2023/07/17 06:02:48;;;;;;;17.27;5.30;;;17.60;78.60;;;;;;5054232;28;20049;-68
2023/07/17 06:05:14;;;;;;;10.77;4.77;;;17.50;79.30;;;;;;5043259;28;20044;-68
2023/07/17 06:07:40;;;;;;;13.57;4.50;;;17.40;79.70;;;;;;5052927;28;20043;-68
2023/07/17 06:10:07;;;;;;;15.23;4.37;;;17.50;79.80;;;;;;5060667;28;20973;-68
2023/07/17 06:12:33;;;;;;;12.10;4.63;;;17.80;79.50;;;;;;5058456;28;20049;-68
2023/07/17 06:14:59;;;;;;;11.93;4.20;;;18.10;77.50;;;;;;5057938;28;20340;-68
2023/07/17 06:17:24;;;;;;;9.10;3.30;;;18.30;76.20;;;;;;5051151;28;20049;-68
2023/07/17 06:19:50;;;;;;;10.70;3.80;;;18.50;76.40;;;;;;5045431;28;20040;-68
2023/07/17 06:22:16;;;;;;;14.60;3.90;;;18.70;74.50;;;;;;5039443;28;20056;-68
2023/07/17 06:24:42;;;;;;;12.10;3.63;;;18.70;74.60;;;;;;5049412;28;20572;-68
2023/07/17 06:27:10;;;;;;;11.47;3.80;;;18.50;74.50;;;;;;5048372;28;20182;-68
2023/07/17 06:29:36;;;;;;;8.20;3.73;;;18.20;75.30;;;;;;5042173;28;20326;-68
2023/07/17 06:32:02;;;;;;;11.03;3.33;;;18.10;75.70;;;;;;5049143;28;20229;-68
2023/07/17 06:34:27;;;;;;;10.73;3.23;;;18.10;76.20;;;;;;5054831;28;20116;-68
2023/07/17 06:36:53;;;;;;;13.43;3.87;;;18.40;75.70;;;;;;5059213;28;20048;-68
2023/07/17 06:39:19;;;;;;;10.60;3.23;;;18.50;75.40;;;;;;5061787;28;20049;-68
2023/07/17 06:41:44;;;;;;;9.97;3.83;;;18.70;73.30;;;;;;5069920;28;20082;-68
2023/07/17 06:44:10;;;;;;;10.00;3.00;;;19.10;73.30;;;;;;5076910;28;20049;-68
2023/07/17 06:46:36;;;;;;;14.23;3.33;;;19.60;72.40;;;;;;5078688;28;20576;-68
2023/07/17 06:49:01;;;;;;;9.70;3.87;;;20.00;70.20;;;;;;5058895;28;20124;-68
2023/07/17 06:51:27;;;;;;;9.87;2.80;;;19.80;69.80;;;;;;5072862;28;20036;-68
2023/07/17 06:53:53;;;;;;;11.53;3.70;;;19.40;69.60;;;;;;5064641;28;20040;-68
2023/07/17 06:56:19;;;;;;;8.37;2.60;;;19.10;70.30;;;;;;5063642;28;20093;-68
2023/07/17 06:58:44;;;;;;;7.37;2.67;;;19.30;70.50;;;;;;5075186;28;20286;-68
2023/07/17 07:01:14;;;;;;;9.70;2.40;;;19.50;68.50;;;;;;5062818;28;20047;-68
2023/07/17 07:03:40;;;;;;;9.37;2.50;;;19.70;65.50;;;;;;5069565;28;20063;-68
2023/07/17 07:06:06;;;;;;;6.40;2.10;;;19.60;65.70;;;;;;5058860;28;20278;-68
2023/07/17 07:08:32;;;;;;;9.37;3.33;;;19.30;66.50;;;;;;5051910;28;20123;-68
2023/07/17 07:10:59;;;;;;;6.17;2.70;;;19.10;68.10;;;;;;5067002;28;20120;-68
2023/07/17 07:13:26;;;;;;;13.80;3.10;;;19.10;68.70;;;;;;5070519;28;20344;-68
2023/07/17 07:15:53;;;;;;;9.73;2.87;;;19.20;69.20;;;;;;5073425;28;20357;-70
2023/07/17 07:18:19;;;;;;;9.07;2.57;;;19.40;69.40;;;;;;5072151;28;20793;-69
2023/07/17 07:20:46;;;;;;;8.90;2.57;;;19.60;69.70;;;;;;5072390;28;20289;-70
2023/07/17 07:23:11;;;;;;;9.97;2.87;;;19.90;69.30;;;;;;5072490;28;20282;-70
2023/07/17 07:25:37;;;;;;;8.37;2.70;;;19.80;67.40;;;;;;5074814;28;20672;-70
2023/07/17 07:28:04;;;;;;;9.83;2.33;;;19.40;67.00;;;;;;5079981;28;20088;-70
2023/07/17 07:30:30;;;;;;;9.03;2.47;;;19.10;68.70;;;;;;5067355;28;20741;-69
2023/07/17 07:32:56;;;;;;;9.07;2.87;;;19.00;69.40;;;;;;5059207;28;20332;-68
2023/07/17 07:35:22;;;;;;;9.00;2.80;;;19.00;69.50;;;;;;5062359;28;20036;-69
2023/07/17 07:37:48;;;;;;;6.47;2.60;;;18.90;69.30;;;;;;5081567;28;20294;-69
2023/07/17 07:40:14;;;;;;;8.10;2.43;;;18.70;69.80;;;;;;5082084;28;20032;-69
2023/07/17 07:42:41;;;;;;;8.83;2.23;;;18.90;68.50;;;;;;5069489;28;20056;-69
2023/07/17 07:45:11;;;;;;;10.07;2.77;;;19.10;68.00;;;;;;5073070;28;20676;-69
2023/07/17 07:47:37;;;;;;;8.60;2.60;;;19.30;68.10;;;;;;5078697;28;20351;-70
2023/07/17 07:50:04;;;;;;;10.53;2.87;;;19.20;67.10;;;;;;5076140;28;20293;-69
2023/07/17 07:52:30;;;;;;;7.40;2.60;;;19.10;67.60;;;;;;5083906;28;20289;-69
2023/07/17 07:54:55;;;;;;;11.90;2.83;;;18.90;67.20;;;;;;5081678;28;20782;-69
2023/07/17 07:57:21;;;;;;;8.63;2.90;;;18.70;67.20;;;;;;5068874;28;20039;-69
2023/07/17 07:59:49;;;;;;;10.70;3.00;;;18.60;67.00;;;;;;5073056;28;20515;-70
2023/07/17 08:02:16;;;;;;;6.60;2.50;;;18.40;67.00;;;;;;5084376;28;20075;-69
2023/07/17 08:04:41;;;;;;;9.07;3.40;;;18.30;66.80;;;;;;5063838;28;20375;-69
2023/07/17 08:07:07;;;;;;;8.30;2.73;;;18.20;67.90;;;;;;5072849;28;20278;-69
2023/07/17 08:09:33;;;;;;;8.63;2.70;;;18.40;69.70;;;;;;5076744;28;20064;-69
2023/07/17 08:11:59;;;;;;;7.77;2.67;;;18.90;68.80;;;;;;5067996;28;20040;-69
2023/07/17 08:14:24;;;;;;;9.43;2.70;;;19.10;66.90;;;;;;5073992;28;20109;-69
2023/07/17 08:16:50;;;;;;;10.07;2.70;;;19.10;66.30;;;;;;5061861;28;20464;-69
2023/07/17 08:19:19;;;;;;;7.80;2.50;;;19.00;66.10;;;;;;5076498;28;20496;-69
2023/07/17 08:21:45;;;;;;;6.07;2.07;;;19.00;65.70;;;;;;5081272;28;20515;-69
2023/07/17 08:24:10;;;;;;;6.53;2.27;;;19.00;64.80;;;;;;5085291;28;20434;-69
2023/07/17 08:26:38;;;;;;;6.43;2.53;;;19.10;65.20;;;;;;5082832;28;20295;-69
2023/07/17 08:29:05;;;;;;;5.43;2.03;;;19.10;63.00;;;;;;5059109;28;20040;-70
2023/07/17 08:31:34;;;;;;;6.07;2.20;;;19.20;63.10;;;;;;5070440;28;20281;-69
2023/07/17 08:34:01;;;;;;;8.80;2.23;;;19.40;62.70;;;;;;5083902;28;20360;-69
2023/07/17 08:36:31;;;;;;;7.97;2.20;;;19.40;60.80;;;;;;5078734;28;20290;-70
2023/07/17 08:38:57;;;;;;;6.83;2.00;;;19.30;62.00;;;;;;5081370;28;20305;-69
2023/07/17 08:41:23;;;;;;;5.93;2.07;;;19.30;62.40;;;;;;5087948;28;20299;-70
2023/07/17 08:43:49;;;;;;;8.30;2.20;;;19.50;62.30;;;;;;5090475;28;20354;-69
2023/07/17 08:46:15;;;;;;;9.10;1.93;;;19.50;59.50;;;;;;5090202;28;20281;-70
2023/07/17 08:48:44;;;;;;;8.33;2.40;;;19.40;59.90;;;;;;5089328;28;20338;-69
2023/07/17 08:51:11;;;;;;;9.13;2.30;;;19.30;61.30;;;;;;5085443;28;20043;-70
2023/07/17 08:53:40;;;;;;;7.97;2.33;;;19.40;63.20;;;;;;5073481;28;20292;-70
2023/07/17 08:56:07;;;;;;;8.87;2.83;;;19.70;63.20;;;;;;5077140;28;20281;-69
2023/07/17 08:58:34;;;;;;;6.70;2.40;;;20.00;64.10;;;;;;5082522;28;20785;-69
2023/07/17 09:01:01;;;;;;;8.50;2.50;;;20.10;63.60;;;;;;5082805;28;20089;-70
2023/07/17 09:03:28;;;;;;;8.93;2.00;;;19.90;61.10;;;;;;5083978;28;20584;-70
2023/07/17 09:05:53;;;;;;;7.33;1.73;;;19.60;62.40;;;;;;5083925;28;20108;-70
2023/07/17 09:08:19;;;;;;;10.77;2.70;;;19.50;64.00;;;;;;5084057;28;20273;-69
2023/07/17 09:11:01;;;;;;;7.47;2.50;;;19.60;64.10;;;;;;5062880;28;20165;-70
2023/07/17 09:13:42;;;;;;;9.03;2.40;;;19.50;63.60;;;;;;5070931;28;20112;-69
2023/07/17 09:16:19;;;;;;;11.10;1.93;;;19.50;64.40;;;;;;5067460;28;20277;-69
2023/07/17 09:18:49;;;;;;;6.47;1.77;;;19.60;62.90;;;;;;5090834;28;20284;-69
2023/07/17 09:21:19;;;;;;;7.03;2.30;;;19.50;61.40;;;;;;5073681;28;20797;-69
2023/07/17 09:23:51;;;;;;;6.77;1.60;;;19.40;62.50;;;;;;5056631;28;20306;-69
2023/07/17 09:26:18;;;;;;;7.50;2.00;;;19.60;63.30;;;;;;5058783;28;20285;-69
2023/07/17 09:28:50;;;;;;;6.60;2.23;;;19.70;62.40;;;;;;5077926;28;20580;-69
2023/07/17 09:31:23;;;;;;;7.23;2.13;;;19.80;61.80;;;;;;5088451;28;20200;-69
2023/07/17 09:33:48;;;;;;;7.30;2.10;;;19.90;61.60;;;;;;5089260;28;20281;-69
2023/07/17 09:36:14;;;;;;;10.30;2.00;;;20.10;60.30;;;;;;5071172;28;20051;-69
2023/07/17 09:38:40;;;;;;;8.53;2.17;;;20.10;60.50;;;;;;5072481;28;20051;-69
2023/07/17 09:41:23;;;;;;;9.97;2.03;;;20.00;60.10;;;;;;5093420;28;20035;-69
2023/07/17 09:44:05;;;;;;;7.80;1.67;;;19.80;61.10;;;;;;5072901;28;20080;-69
2023/07/17 09:46:34;;;;;;;6.80;2.00;;;20.00;59.60;;;;;;5066722;28;20278;-69
2023/07/17 09:48:59;;;;;;;8.13;2.30;;;20.30;59.90;;;;;;5060465;28;20278;-69
2023/07/17 09:51:26;;;;;;;6.50;1.83;;;20.50;60.00;;;;;;5072703;28;20036;-69
2023/07/17 09:53:52;;;;;;;7.27;2.17;;;20.60;58.40;;;;;;5080337;28;20462;-69
2023/07/17 09:56:19;;;;;;;7.40;2.23;;;20.60;56.90;;;;;;5081941;28;20043;-70
2023/07/17 09:58:47;;;;;;;6.47;2.00;;;20.70;57.90;;;;;;5074674;28;20043;-69
2023/07/17 10:01:18;;;;;;;6.90;1.77;;;20.80;58.30;;;;;;5065521;28;20562;-69
2023/07/17 10:03:48;;;;;;;8.67;3.10;;;21.00;57.70;;;;;;5063914;28;20039;-69
2023/07/17 10:06:19;;;;;;;7.50;2.20;;;21.10;56.00;;;;;;5077047;28;20040;-69
2023/07/17 10:08:47;;;;;;;6.60;2.00;;;21.20;55.20;;;;;;5100540;28;20483;-69
2023/07/17 10:11:17;;;;;;;9.13;2.50;;;21.30;55.70;;;;;;5059776;28;20473;-70
2023/07/17 10:13:47;;;;;;;10.63;2.73;;;21.30;56.30;;;;;;5086623;28;20052;-69
2023/07/17 10:16:16;;;;;;;6.20;2.20;;;21.30;56.30;;;;;;5070609;28;20048;-69
2023/07/17 10:18:54;;;;;;;8.13;3.00;;;21.30;55.80;;;;;;5069037;28;20044;-69
2023/07/17 10:21:21;;;;;;;8.43;2.60;;;21.20;56.80;;;;;;5075034;28;20036;-69
2023/07/17 10:23:48;;;;;;;8.87;2.70;;;21.10;55.70;;;;;;5074366;28;20052;-69
2023/07/17 10:26:19;;;;;;;7.10;2.90;;;20.90;57.80;;;;;;5075668;28;20044;-69
2023/07/17 10:28:52;;;;;;;6.83;2.33;;;21.00;56.90;;;;;;5086342;28;20067;-69
2023/07/17 10:31:25;;;;;;;7.87;2.20;;;21.10;57.10;;;;;;5063271;28;20166;-70
2023/07/17 10:34:03;;;;;;;5.97;2.30;;;21.20;57.20;;;;;;5078591;28;20036;-70
2023/07/17 10:36:45;;;;;;;6.23;2.27;;;21.40;56.60;;;;;;5096104;28;20046;-70
2023/07/17 10:39:18;;;;;;;6.10;2.50;;;21.50;55.40;;;;;;5087196;28;20040;-69
2023/07/17 10:41:48;;;;;;;5.23;1.70;;;21.50;56.10;;;;;;5070914;28;20051;-69
2023/07/17 10:44:19;;;;;;;6.33;2.50;;;21.70;53.80;;;;;;5081075;28;20066;-70
2023/07/17 10:46:46;;;;;;;5.77;2.10;;;21.70;52.40;;;;;;5083410;28;20051;-69
2023/07/17 10:49:13;;;;;;;5.90;2.33;;;21.60;53.40;;;;;;5089369;28;20093;-69
2023/07/17 10:51:47;;;;;;;5.77;1.60;;;21.70;54.90;;;;;;5085034;28;20550;-70
2023/07/17 10:54:14;;;;;;;6.40;2.10;;;21.80;54.60;;;;;;5089727;28;20283;-69
2023/07/17 10:56:42;;;;;;;5.93;1.73;;;21.60;54.70;;;;;;5087565;28;20096;-69
2023/07/17 10:59:08;;;;;;;4.87;1.70;;;21.50;56.20;;;;;;5090887;28;20774;-69
2023/07/17 11:01:34;;;;;;;8.90;2.30;;;21.30;54.30;;;;;;5071039;28;20042;-69
2023/07/17 11:04:00;;;;;;;8.97;1.90;;;21.10;55.40;;;;;;5068814;28;20050;-69
2023/07/17 11:06:27;;;;;;;6.90;2.20;;;21.10;56.70;;;;;;5087107;28;20508;-69
2023/07/17 11:08:54;;;;;;;5.17;1.50;;;21.20;56.30;;;;;;5080411;28;20492;-69
2023/07/17 11:11:20;;;;;;;9.43;2.10;;;21.40;56.20;;;;;;5080913;28;20437;-69
2023/07/17 11:13:47;;;;;;;8.77;1.83;;;21.40;55.80;;;;;;5072982;28;20123;-69
2023/07/17 11:16:13;;;;;;;8.97;2.00;;;21.20;56.60;;;;;;5070391;28;20043;-69
2023/07/17 11:18:47;;;;;;;8.10;2.10;;;20.90;56.60;;;;;;5069074;28;20051;-69
2023/07/17 11:21:18;;;;;;;6.25;1.50;;;20.70;57.00;;;;;;5072598;28;20690;-69
2023/07/17 11:23:48;;;;;;;10.03;2.10;;;20.60;58.20;;;;;;5072178;28;20032;-69
2023/07/17 11:26:21;;;;;;;6.47;1.87;;;20.80;58.40;;;;;;5108031;27;20035;-69
2023/07/17 11:28:49;;;;;;;6.63;1.90;;;21.30;57.90;;;;;;5089888;28;20035;-69
2023/07/17 11:31:24;;;;;;;5.17;1.70;;;21.40;55.70;;;;;;5091957;28;20039;-69
2023/07/17 11:33:58;;;;;;;8.70;1.67;;;21.40;57.10;;;;;;5103015;28;20035;-69
2023/07/17 11:36:43;;;;;;;8.65;1.90;;;21.50;55.20;;;;;;5084217;28;20394;-69
2023/07/17 11:39:20;;;;;;;6.45;1.90;;;21.60;55.60;;;;;;5090977;28;20051;-69
2023/07/17 11:41:50;;;;;;;6.17;1.67;;;21.80;56.10;;;;;;5093507;28;20039;-69
2023/07/17 11:44:31;;;;;;;4.97;1.90;;;21.70;55.50;;;;;;5079422;28;20087;-69
2023/07/17 11:47:03;;;;;;;6.57;2.10;;;21.60;54.40;;;;;;5090997;28;20056;-69
2023/07/17 11:49:29;;;;;;;4.93;1.57;;;21.70;55.00;;;;;;5075688;28;20052;-70
2023/07/17 11:51:56;;;;;;;6.93;2.20;;;21.70;55.40;;;;;;5081742;28;20040;-70
2023/07/17 11:54:27;;;;;;;6.03;2.03;;;21.70;55.50;;;;;;5084330;28;20044;-70
2023/07/17 11:56:59;;;;;;;6.07;1.70;;;21.60;54.30;;;;;;5074934;28;20039;-70
2023/07/17 11:59:25;;;;;;;5.63;1.93;;;21.60;55.40;;;;;;5084939;28;20115;-69
2023/07/17 12:01:51;;;;;;;9.17;2.10;;;21.50;54.70;;;;;;5083731;28;20500;-69
2023/07/17 12:04:21;;;;;;;4.43;1.73;;;21.40;54.20;;;;;;5093517;28;20101;-69
2023/07/17 12:06:48;;;;;;;4.77;2.00;;;21.20;54.90;;;;;;5083783;28;20040;-69
2023/07/17 12:09:14;;;;;;;4.90;1.90;;;21.40;54.80;;;;;;5072602;28;20115;-68
2023/07/17 12:11:43;;;;;;;6.97;1.97;;;21.50;54.00;;;;;;5077197;28;20099;-69
2023/07/17 12:14:08;;;;;;;6.90;2.00;;;21.60;53.60;;;;;;5075876;28;20404;-70
2023/07/17 12:16:34;;;;;;;6.43;1.60;;;21.90;54.70;;;;;;5079554;28;20044;-70
2023/07/17 12:19:03;;;;;;;5.63;1.73;;;21.90;52.30;;;;;;5074291;28;20544;-70
2023/07/17 12:21:28;;;;;;;4.97;1.77;;;21.90;52.70;;;;;;5078995;28;20465;-70
2023/07/17 12:23:57;;;;;;;4.07;1.50;;;21.90;52.70;;;;;;5069426;28;20048;-70
2023/07/17 12:26:23;;;;;;;6.77;1.50;;;22.00;52.20;;;;;;5083676;28;20043;-70
2023/07/17 12:28:48;;;;;;;4.43;1.50;;;22.20;52.10;;;;;;5100114;28;20040;-70
2023/07/17 12:31:14;;;;;;;5.17;1.73;;;22.20;51.40;;;;;;5100571;28;20054;-70
2023/07/17 12:33:40;;;;;;;5.07;1.83;;;22.10;53.30;;;;;;5087116;28;20808;-70
2023/07/17 12:36:06;;;;;;;7.63;1.70;;;22.20;52.30;;;;;;5081110;28;20044;-70
2023/07/17 12:38:31;;;;;;;6.07;1.83;;;22.10;52.30;;;;;;5079470;28;20048;-70
2023/07/17 12:41:00;;;;;;;6.13;1.53;;;22.10;52.50;;;;;;5080973;28;20048;-70